createdAt,value
2019-01-27T00:03:05.745Z,44.20
2019-01-27T00:13:10.137Z,43.80
2019-01-27T00:23:14.875Z,43.70
2019-01-27T00:33:19.220Z,43.80
2019-01-27T00:43:23.643Z,44.00
2019-01-27T00:53:28.143Z,44.20
2019-01-27T01:03:32.756Z,44.50
2019-01-27T01:13:37.229Z,44.00
2019-01-27T01:23:41.763Z,44.80
2019-01-27T01:33:46.113Z,44.90
2019-01-27T01:43:50.894Z,45.00
2019-01-27T01:53:55.270Z,45.00
2019-01-27T02:04:00.040Z,45.00
2019-01-27T02:14:04.982Z,45.30
2019-01-27T02:24:09.386Z,45.50
2019-01-27T02:34:13.724Z,45.80
2019-01-27T02:44:18.418Z,46.60
2019-01-27T02:54:24.019Z,45.90
2019-01-27T03:04:28.412Z,45.80
2019-01-27T03:14:32.867Z,45.80
2019-01-27T03:24:37.639Z,45.90
2019-01-27T03:34:42.018Z,46.10
2019-01-27T03:44:46.493Z,46.10
2019-01-27T03:54:50.875Z,46.50
2019-01-27T04:04:55.398Z,46.10
2019-01-27T04:14:59.881Z,45.80
2019-01-27T04:25:04.998Z,45.60
2019-01-27T04:35:11.103Z,45.70
2019-01-27T04:45:17.920Z,45.70
2019-01-27T04:55:22.363Z,45.50
2019-01-27T05:05:27.332Z,45.50
2019-01-27T05:15:33.059Z,45.60
2019-01-27T05:25:37.497Z,45.60
2019-01-27T05:35:42.124Z,45.60
2019-01-27T05:45:46.648Z,45.30
2019-01-27T05:55:51.013Z,45.30
2019-01-27T06:05:55.394Z,46.00
2019-01-27T06:15:59.963Z,45.30
2019-01-27T06:26:04.709Z,45.40
2019-01-27T06:36:09.085Z,45.20
2019-01-27T06:46:13.745Z,45.80
2019-01-27T06:56:18.306Z,45.20
2019-01-27T07:06:27.110Z,45.40
2019-01-27T07:16:35.857Z,37.40
2019-01-27T07:27:09.798Z,40.40
2019-01-27T07:37:33.738Z,37.90
2019-01-27T07:47:42.842Z,37.90
2019-01-27T07:57:55.144Z,38.50
2019-01-27T08:08:01.023Z,38.80
2019-01-27T08:18:07.021Z,38.40
2019-01-27T08:28:13.249Z,38.20
2019-01-27T08:38:28.392Z,38.10
2019-01-27T08:48:32.741Z,38.30
2019-01-27T08:58:38.360Z,39.10
2019-01-27T09:09:02.991Z,38.70
2019-01-27T09:19:10.639Z,36.40
2019-01-27T09:29:16.852Z,35.60
2019-01-27T09:39:38.120Z,35.50
2019-01-27T09:49:56.854Z,34.60
2019-01-27T10:00:06.020Z,35.60
2019-01-27T10:10:12.672Z,36.90
2019-01-27T10:20:18.820Z,37.30
2019-01-27T10:30:26.023Z,38.10
2019-01-27T10:40:39.811Z,35.40
2019-01-27T10:50:55.795Z,37.10
2019-01-27T11:01:01.921Z,36.70
2019-01-27T11:11:07.940Z,38.70
2019-01-27T11:21:32.821Z,38.70
2019-01-27T11:31:40.011Z,37.70
2019-01-27T11:41:46.061Z,38.80
2019-01-27T11:51:50.747Z,41.40
2019-01-27T12:01:55.429Z,43.50
2019-01-27T12:11:59.792Z,41.90
2019-01-27T12:22:04.095Z,44.00
2019-01-27T12:32:08.827Z,44.10
2019-01-27T12:42:14.423Z,42.20
2019-01-27T12:52:18.855Z,42.00
2019-01-27T13:02:23.153Z,41.30
2019-01-27T13:12:27.607Z,38.10
2019-01-27T13:22:32.085Z,37.80
2019-01-27T13:32:36.799Z,39.60
2019-01-27T13:42:41.739Z,40.00
2019-01-27T13:52:46.130Z,40.70
2019-01-27T14:02:50.482Z,42.50
2019-01-27T14:12:55.142Z,35.80
2019-01-27T14:22:59.723Z,39.00
2019-01-27T14:33:04.284Z,41.00
2019-01-27T14:43:09.845Z,42.20
2019-01-27T14:53:14.316Z,43.00
2019-01-27T15:03:18.746Z,43.50
2019-01-27T15:13:23.283Z,44.30
2019-01-27T15:23:27.957Z,45.40
2019-01-27T15:33:32.633Z,46.10
2019-01-27T15:43:37.098Z,47.50
2019-01-27T15:53:42.571Z,48.50
2019-01-27T16:03:46.998Z,48.60
2019-01-27T16:13:51.536Z,48.40
2019-01-27T16:23:56.394Z,48.00
2019-01-27T16:34:02.491Z,48.00
2019-01-27T16:44:06.958Z,48.10
2019-01-27T16:54:11.196Z,47.90
2019-01-27T17:04:15.622Z,47.20
2019-01-27T17:14:20.288Z,46.90
2019-01-27T17:24:24.565Z,46.80
2019-01-27T17:35:55.695Z,42.40
2019-01-27T17:46:00.245Z,43.30
2019-01-27T17:56:04.817Z,44.60
2019-01-27T18:06:16.831Z,45.70
2019-01-27T18:16:21.521Z,47.40
2019-01-27T18:26:25.826Z,48.00
2019-01-27T18:36:30.440Z,46.70
2019-01-27T19:01:26.667Z,47.50
2019-01-27T19:11:41.642Z,48.30
2019-01-27T19:22:10.712Z,47.90
2019-01-27T19:32:16.914Z,46.20
2019-01-27T19:42:25.937Z,46.80
2019-01-27T19:52:34.537Z,46.90
2019-01-27T20:02:40.622Z,48.20
2019-01-27T20:13:08.551Z,47.10
2019-01-27T20:30:21.510Z,45.40
2019-01-27T20:40:27.569Z,45.00
2019-01-27T20:50:36.975Z,46.80
2019-01-27T21:00:51.858Z,46.10
2019-01-27T21:11:03.871Z,46.20
2019-01-27T21:21:08.150Z,46.10
2019-01-27T21:31:12.500Z,45.90
2019-01-27T21:41:16.904Z,46.90
2019-01-27T21:51:21.509Z,47.20
2019-01-27T22:01:26.044Z,46.60
2019-01-27T22:11:30.448Z,47.80
2019-01-27T22:21:34.785Z,47.40
2019-01-27T22:31:39.326Z,46.10
2019-01-27T22:41:43.641Z,46.00
2019-01-27T22:51:48.680Z,46.30
2019-01-27T23:01:53.596Z,47.50
2019-01-27T23:11:58.236Z,46.00
2019-01-27T23:22:02.744Z,46.00
2019-01-27T23:32:07.520Z,46.60
2019-01-27T23:42:11.846Z,46.10
2019-01-27T23:52:16.111Z,46.00
